createdAt,value
2023-05-12T00:00:03.101Z,101425.06
2023-05-12T00:01:04.880Z,101433.25
2023-05-12T00:02:06.396Z,101433.38
2023-05-12T00:03:08.077Z,101422.53
2023-05-12T00:04:09.709Z,101428.94
2023-05-12T00:05:11.386Z,101429.13
2023-05-12T00:06:12.873Z,101429.94
2023-05-12T00:07:14.270Z,101430.03
2023-05-12T00:08:15.711Z,101420.06
2023-05-12T00:09:17.155Z,101424.72
2023-05-12T00:10:18.927Z,101420.94
2023-05-12T00:11:21.487Z,101424.53
2023-05-12T00:12:22.929Z,101425.47
2023-05-12T00:13:24.606Z,101418.16
2023-05-12T00:14:26.047Z,101418.22
2023-05-12T00:15:27.462Z,101421.97
2023-05-12T00:16:28.943Z,101422.03
2023-05-12T00:17:30.389Z,101425.91
2023-05-12T00:18:31.867Z,101425.91
2023-05-12T00:19:34.546Z,101426.75
2023-05-12T00:20:36.197Z,101417.84
2023-05-12T00:21:37.582Z,101423.25
2023-05-12T00:22:41.822Z,101419.59
2023-05-12T00:23:43.411Z,101416.03
2023-05-12T00:24:44.965Z,101418.69
2023-05-12T00:25:46.391Z,101417.69
2023-05-12T00:26:48.602Z,101418.66
2023-05-12T00:27:50.003Z,101419.59
2023-05-12T00:28:51.783Z,101415.91
2023-05-12T00:29:53.163Z,101425.06
2023-05-12T00:30:54.619Z,101421.47
2023-05-12T00:31:56.354Z,101421.53
2023-05-12T00:32:58.643Z,101424.41
2023-05-12T00:34:00.189Z,101421.75
2023-05-12T00:35:01.657Z,101423.63
2023-05-12T00:36:04.083Z,101427.31
2023-05-12T00:37:06.362Z,101419.03
2023-05-12T00:38:07.783Z,101422.91
2023-05-12T00:39:09.891Z,101418.38
2023-05-12T00:40:11.549Z,101417.72
2023-05-12T00:41:13.282Z,101432.25
2023-05-12T00:42:15.087Z,101425.09
2023-05-12T00:43:16.498Z,101425.94
2023-05-12T00:44:18.439Z,101426.97
2023-05-12T00:45:20.479Z,101432.41
2023-05-12T00:46:22.143Z,101430.56
2023-05-12T00:47:23.754Z,101428.81
2023-05-12T00:48:25.729Z,101426.97
2023-05-12T00:49:27.284Z,101427.03
2023-05-12T00:50:28.764Z,101425.22
2023-05-12T00:51:30.885Z,101422.72
2023-05-12T00:52:32.361Z,101437.31
2023-05-12T00:53:47.732Z,101424.63
2023-05-12T00:54:51.105Z,101431.97
2023-05-12T00:55:53.610Z,101429.34
2023-05-12T00:56:55.445Z,101430.28
2023-05-12T00:57:57.089Z,101425.03
2023-05-12T00:58:58.528Z,101434.09
2023-05-12T00:59:59.975Z,101430.28
2023-05-12T01:01:01.413Z,101428.63
2023-05-12T01:02:03.311Z,101432.25
2023-05-12T01:03:04.989Z,101423.13
2023-05-12T01:04:06.675Z,101431.19
2023-05-12T01:05:09.843Z,101433.91
2023-05-12T01:06:38.122Z,101431.19
2023-05-12T01:07:40.448Z,101428.63
2023-05-12T01:08:42.604Z,101429.53
2023-05-12T01:09:44.108Z,101426.75
2023-05-12T01:10:45.619Z,101427.53
2023-05-12T01:11:47.007Z,101432.25
2023-05-12T01:12:48.583Z,101426.75
2023-05-12T01:13:50.001Z,101433.78
2023-05-12T01:14:53.482Z,101435.72
2023-05-12T01:15:56.462Z,101429.19
2023-05-12T01:17:01.695Z,101432.78
2023-05-12T01:18:05.219Z,101435.66
2023-05-12T01:19:14.911Z,101429.13
2023-05-12T01:20:19.120Z,101435.38
2023-05-12T01:21:20.702Z,101439.91
2023-05-12T01:22:23.631Z,101434.53
2023-05-12T01:23:36.253Z,101436.28
2023-05-12T01:24:51.144Z,101438.06
2023-05-12T01:25:52.672Z,101440.75
2023-05-12T01:26:54.085Z,101440.75
2023-05-12T01:27:55.755Z,101440.63
2023-05-12T01:28:57.596Z,101439.00
2023-05-12T01:30:01.774Z,101438.09
2023-05-12T01:31:05.226Z,101449.88
2023-05-12T01:32:07.555Z,101444.41
2023-05-12T01:33:09.514Z,101443.44
2023-05-12T01:34:15.295Z,101443.47
2023-05-12T01:35:16.621Z,101443.47
2023-05-12T01:36:18.011Z,101443.56
2023-05-12T01:37:19.586Z,101440.81
2023-05-12T01:38:21.015Z,101442.59
2023-05-12T01:39:22.412Z,101437.19
2023-05-12T01:40:23.813Z,101437.19
2023-05-12T01:41:25.462Z,101444.56
2023-05-12T01:42:26.936Z,101440.84
2023-05-12T01:43:28.369Z,101440.00
2023-05-12T01:44:29.827Z,101442.75
2023-05-12T01:45:31.321Z,101437.28
2023-05-12T01:46:32.776Z,101442.72
2023-05-12T01:47:34.239Z,101441.88
2023-05-12T01:48:35.660Z,101440.06
2023-05-12T01:49:37.768Z,101440.00
2023-05-12T01:50:39.199Z,101437.41
2023-05-12T01:51:40.658Z,101448.28
2023-05-12T01:52:42.206Z,101444.56
2023-05-12T01:53:43.623Z,101449.97
2023-05-12T01:54:45.111Z,101451.94
2023-05-12T01:55:46.541Z,101451.13
2023-05-12T01:56:47.978Z,101450.28
2023-05-12T01:57:49.394Z,101435.66
2023-05-12T01:58:50.959Z,101451.13
2023-05-12T01:59:52.420Z,101453.84
2023-05-12T02:00:53.809Z,101452.84
2023-05-12T02:01:55.306Z,101443.81
2023-05-12T02:02:57.029Z,101451.09
2023-05-12T02:03:59.169Z,101451.94
2023-05-12T02:05:00.871Z,101445.66
2023-05-12T02:06:02.355Z,101444.81
2023-05-12T02:07:03.868Z,101447.41
2023-05-12T02:08:05.391Z,101448.44
2023-05-12T02:09:06.788Z,101451.13
2023-05-12T02:10:09.370Z,101444.72
2023-05-12T02:11:11.005Z,101453.00
2023-05-12T02:12:12.501Z,101447.59
2023-05-12T02:13:14.064Z,101463.94
2023-05-12T02:14:15.531Z,101454.78
2023-05-12T02:15:17.008Z,101459.63
2023-05-12T02:16:18.462Z,101453.16
2023-05-12T02:17:19.869Z,101459.69
2023-05-12T02:18:21.250Z,101457.88
2023-05-12T02:19:22.691Z,101464.22
2023-05-12T02:20:24.262Z,101457.06
2023-05-12T02:21:26.002Z,101462.38
2023-05-12T02:22:27.471Z,101466.16
2023-05-12T02:23:28.902Z,101463.38
2023-05-12T02:24:30.347Z,101456.13
2023-05-12T02:25:31.861Z,101461.66
2023-05-12T02:26:33.246Z,101463.59
2023-05-12T02:27:34.661Z,101459.94
2023-05-12T02:28:36.553Z,101471.72
2023-05-12T02:29:38.142Z,101464.47
2023-05-12T02:30:45.158Z,101472.78
2023-05-12T02:31:46.664Z,101467.38
2023-05-12T02:32:48.231Z,101469.25
2023-05-12T02:33:51.500Z,101471.09
2023-05-12T02:34:52.936Z,101480.41
2023-05-12T02:35:54.341Z,101468.50
2023-05-12T02:36:55.843Z,101469.41
2023-05-12T02:37:57.944Z,101488.63
2023-05-12T02:38:59.376Z,101473.03
2023-05-12T02:40:00.795Z,101477.53
2023-05-12T02:41:02.216Z,101481.09
2023-05-12T02:42:03.817Z,101478.53
2023-05-12T02:43:05.599Z,101473.19
2023-05-12T02:44:07.338Z,101480.53
2023-05-12T02:45:10.134Z,101482.31
2023-05-12T02:46:11.658Z,101480.59
2023-05-12T02:47:13.105Z,101485.19
2023-05-12T02:48:14.487Z,101482.50
2023-05-12T02:49:16.191Z,101477.16
2023-05-12T02:50:17.850Z,101482.66
2023-05-12T02:51:19.293Z,101477.31
2023-05-12T02:52:22.099Z,101476.44
2023-05-12T02:53:23.561Z,101472.84
2023-05-12T02:54:24.941Z,101485.63
2023-05-12T02:55:27.126Z,101478.34
2023-05-12T02:56:29.064Z,101474.78
2023-05-12T02:57:33.870Z,101478.47
2023-05-12T02:58:35.449Z,101481.25
2023-05-12T02:59:36.859Z,101479.50
2023-05-12T03:00:38.362Z,101475.97
2023-05-12T03:01:39.822Z,101481.53
2023-05-12T03:02:41.714Z,101472.47
2023-05-12T03:03:43.331Z,101484.31
2023-05-12T03:04:44.861Z,101472.63
2023-05-12T03:05:47.649Z,101471.63
2023-05-12T03:06:49.429Z,101472.59
2023-05-12T03:07:50.970Z,101474.47
2023-05-12T03:08:52.453Z,101479.03
2023-05-12T03:09:54.086Z,101479.94
2023-05-12T03:10:55.504Z,101479.13
2023-05-12T03:11:56.907Z,101485.50
2023-05-12T03:12:58.314Z,101478.31
2023-05-12T03:13:59.702Z,101475.66
2023-05-12T03:15:01.112Z,101481.91
2023-05-12T03:16:02.563Z,101480.19
2023-05-12T03:17:04.300Z,101485.66
2023-05-12T03:18:06.317Z,101479.34
2023-05-12T03:19:08.177Z,101485.75
2023-05-12T03:20:10.005Z,101485.81
2023-05-12T03:21:11.429Z,101489.47
2023-05-12T03:22:13.629Z,101470.50
2023-05-12T03:23:15.067Z,101486.88
2023-05-12T03:24:16.521Z,101478.69
2023-05-12T03:25:17.978Z,101475.03
2023-05-12T03:26:19.507Z,101488.75
2023-05-12T03:27:20.992Z,101484.31
2023-05-12T03:28:24.481Z,101488.84
2023-05-12T03:29:26.586Z,101487.03
2023-05-12T03:30:28.012Z,101477.94
2023-05-12T03:31:29.497Z,101479.75
2023-05-12T03:32:31.214Z,101493.44
2023-05-12T03:33:32.652Z,101492.63
2023-05-12T03:34:34.395Z,101490.81
2023-05-12T03:35:35.859Z,101486.25
2023-05-12T03:36:37.350Z,101499.00
2023-05-12T03:37:39.000Z,101496.31
2023-05-12T03:38:40.466Z,101497.22
2023-05-12T03:39:41.897Z,101498.09
2023-05-12T03:40:43.329Z,101491.81
2023-05-12T03:41:44.714Z,101490.00
2023-05-12T03:42:46.175Z,101500.00
2023-05-12T03:43:47.698Z,101494.53
2023-05-12T03:44:49.124Z,101500.09
2023-05-12T03:45:50.707Z,101500.06
2023-05-12T03:46:52.208Z,101498.31
2023-05-12T03:47:53.664Z,101496.56
2023-05-12T03:48:55.461Z,101500.19
2023-05-12T03:49:57.389Z,101491.94
2023-05-12T03:50:58.740Z,101497.41
2023-05-12T03:52:00.433Z,101496.44
2023-05-12T03:53:01.916Z,101496.47
2023-05-12T03:54:03.538Z,101499.19
2023-05-12T03:55:08.595Z,101501.88
2023-05-12T03:56:10.016Z,101502.00
2023-05-12T03:57:12.500Z,101500.13
2023-05-12T03:58:14.034Z,101494.72
2023-05-12T03:59:16.106Z,101497.38
2023-05-12T04:00:18.347Z,101497.38
2023-05-12T04:01:19.848Z,101502.88
2023-05-12T04:02:21.381Z,101498.31
2023-05-12T04:03:22.981Z,101506.53
2023-05-12T04:04:24.539Z,101498.38
2023-05-12T04:05:26.240Z,101501.00
2023-05-12T04:06:27.734Z,101501.09
2023-05-12T04:07:29.178Z,101501.03
2023-05-12T04:08:31.106Z,101503.81
2023-05-12T04:09:33.107Z,101497.50
2023-05-12T04:10:41.848Z,101501.09
2023-05-12T04:11:43.343Z,101503.81
2023-05-12T04:12:44.717Z,101502.91
2023-05-12T04:13:46.462Z,101510.22
2023-05-12T04:14:48.180Z,101501.09
2023-05-12T04:15:49.860Z,101502.00
2023-05-12T04:16:51.433Z,101512.03
2023-05-12T04:17:52.953Z,101507.47
2023-05-12T04:18:54.424Z,101509.25
2023-05-12T04:19:55.869Z,101511.09
2023-05-12T04:20:57.588Z,101514.81
2023-05-12T04:21:59.024Z,101508.50
2023-05-12T04:23:00.502Z,101515.69
2023-05-12T04:24:01.976Z,101516.59
2023-05-12T04:25:03.459Z,101516.63
2023-05-12T04:26:05.297Z,101521.19
2023-05-12T04:27:07.134Z,101513.88
2023-05-12T04:28:11.818Z,101512.16
2023-05-12T04:29:14.633Z,101514.78
2023-05-12T04:30:16.659Z,101517.47
2023-05-12T04:31:18.083Z,101521.06
2023-05-12T04:32:19.518Z,101519.19
2023-05-12T04:33:20.936Z,101508.28
2023-05-12T04:34:22.385Z,101513.75
2023-05-12T04:35:23.975Z,101524.56
2023-05-12T04:36:25.394Z,101519.03
2023-05-12T04:37:27.303Z,101519.00
2023-05-12T04:38:28.703Z,101510.78
2023-05-12T04:39:30.118Z,101512.63
2023-05-12T04:40:34.020Z,101519.00
2023-05-12T04:41:36.516Z,101515.28
2023-05-12T04:42:37.910Z,101520.75
2023-05-12T04:44:46.031Z,101518.84
2023-05-12T04:45:47.500Z,101523.34
2023-05-12T04:46:50.600Z,101517.75
2023-05-12T04:47:52.124Z,101514.97
2023-05-12T04:48:53.566Z,101519.47
2023-05-12T04:49:54.938Z,101521.28
2023-05-12T04:50:58.474Z,101520.28
2023-05-12T04:51:59.898Z,101522.81
2023-05-12T04:53:01.322Z,101521.84
2023-05-12T04:54:03.114Z,101518.19
2023-05-12T04:55:06.000Z,101524.53
2023-05-12T04:56:08.090Z,101525.38
2023-05-12T04:57:09.584Z,101527.13
2023-05-12T04:58:11.333Z,101533.38
2023-05-12T04:59:15.684Z,101532.47
2023-05-12T05:00:17.307Z,101538.00
2023-05-12T05:01:18.839Z,101536.75
2023-05-12T05:02:20.376Z,101528.31
2023-05-12T05:03:22.520Z,101535.22
2023-05-12T05:04:24.107Z,101535.22
2023-05-12T05:05:25.592Z,101529.56
2023-05-12T05:06:28.273Z,101540.03
2023-05-12T05:07:29.713Z,101527.13
2023-05-12T05:08:31.172Z,101527.03
2023-05-12T05:09:33.934Z,101528.72
2023-05-12T05:10:37.118Z,101538.47
2023-05-12T05:11:38.536Z,101532.56
2023-05-12T05:12:39.973Z,101531.94
2023-05-12T05:13:41.392Z,101523.66
2023-05-12T05:14:42.831Z,101529.13
2023-05-12T05:15:54.634Z,101542.69
2023-05-12T05:16:56.148Z,101540.16
2023-05-12T05:17:59.423Z,101539.13
2023-05-12T05:19:06.462Z,101541.13
2023-05-12T05:20:11.741Z,101529.81
2023-05-12T05:21:14.546Z,101533.09
2023-05-12T05:22:16.934Z,101534.63
2023-05-12T05:23:20.595Z,101535.38
2023-05-12T05:24:22.120Z,101533.50
2023-05-12T05:25:23.695Z,101536.81
2023-05-12T05:26:25.319Z,101535.81
2023-05-12T05:27:26.909Z,101531.72
2023-05-12T05:28:28.404Z,101529.84
2023-05-12T05:29:29.816Z,101536.19
2023-05-12T05:30:31.524Z,101534.94
2023-05-12T05:31:33.176Z,101534.19
2023-05-12T05:32:40.131Z,101531.16
2023-05-12T05:33:41.678Z,101535.72
2023-05-12T05:34:43.194Z,101530.31
2023-05-12T05:35:45.472Z,101541.13
2023-05-12T05:36:47.144Z,101540.03
2023-05-12T05:37:50.711Z,101531.91
2023-05-12T05:38:52.577Z,101542.22
2023-05-12T05:39:53.905Z,101540.00
2023-05-12T05:40:55.370Z,101540.59
2023-05-12T05:41:57.887Z,101536.72
2023-05-12T05:42:59.328Z,101541.03
2023-05-12T05:44:01.462Z,101528.22
2023-05-12T05:45:03.076Z,101538.25
2023-05-12T05:46:04.694Z,101539.28
2023-05-12T05:47:06.196Z,101537.47
2023-05-12T05:48:07.617Z,101540.19
2023-05-12T05:49:09.032Z,101540.91
2023-05-12T05:50:10.714Z,101538.88
2023-05-12T05:51:12.228Z,101542.41
2023-05-12T05:52:13.642Z,101551.56
2023-05-12T05:53:15.543Z,101533.19
2023-05-12T05:54:17.047Z,101544.69
2023-05-12T05:55:18.825Z,101537.16
2023-05-12T05:56:20.689Z,101549.25
2023-05-12T05:57:22.409Z,101551.91
2023-05-12T05:58:23.863Z,101548.13
2023-05-12T05:59:25.373Z,101547.88
2023-05-12T06:00:26.838Z,101543.47
2023-05-12T06:01:28.626Z,101542.38
2023-05-12T06:02:32.168Z,101547.72
2023-05-12T06:03:34.009Z,101541.41
2023-05-12T06:04:35.688Z,101553.84
2023-05-12T06:05:37.797Z,101546.50
2023-05-12T06:06:39.312Z,101547.53
2023-05-12T06:07:40.729Z,101545.72
2023-05-12T06:08:42.151Z,101551.31
2023-05-12T06:09:43.540Z,101551.13
2023-05-12T06:10:45.182Z,101549.34
2023-05-12T06:11:46.620Z,101545.72
2023-05-12T06:12:48.091Z,101546.31
2023-05-12T06:13:49.830Z,101546.19
2023-05-12T06:14:51.329Z,101543.31
2023-05-12T06:15:52.762Z,101553.31
2023-05-12T06:16:54.346Z,101556.28
2023-05-12T06:17:55.996Z,101553.72
2023-05-12T06:18:57.471Z,101553.75
2023-05-12T06:19:58.872Z,101552.91
2023-05-12T06:21:00.261Z,101551.69
2023-05-12T06:22:01.676Z,101560.75
2023-05-12T06:23:03.143Z,101554.56
2023-05-12T06:24:04.684Z,101559.13
2023-05-12T06:25:06.635Z,101564.72
2023-05-12T06:26:07.961Z,101566.34
2023-05-12T06:27:09.383Z,101561.78
2023-05-12T06:28:10.812Z,101563.50
2023-05-12T06:29:12.320Z,101568.81
2023-05-12T06:30:15.963Z,101567.66
2023-05-12T06:31:17.952Z,101569.47
2023-05-12T06:32:19.637Z,101575.88
2023-05-12T06:33:21.458Z,101568.66
2023-05-12T06:34:22.881Z,101572.38
2023-05-12T06:35:24.323Z,101551.13
2023-05-12T06:36:25.808Z,101570.19
2023-05-12T06:37:27.494Z,101568.47
2023-05-12T06:38:28.943Z,101566.56
2023-05-12T06:39:30.315Z,101560.03
2023-05-12T06:40:32.199Z,101562.53
2023-05-12T06:41:33.573Z,101568.84
2023-05-12T06:42:35.020Z,101560.66
2023-05-12T06:43:36.454Z,101556.09
2023-05-12T06:44:38.937Z,101559.50
2023-05-12T06:45:44.402Z,101570.38
2023-05-12T06:46:46.001Z,101568.44
2023-05-12T06:47:47.555Z,101563.13
2023-05-12T06:48:48.976Z,101559.19
2023-05-12T06:49:50.530Z,101567.19
2023-05-12T06:50:52.543Z,101564.28
2023-05-12T06:51:53.960Z,101565.75
2023-05-12T06:52:55.449Z,101573.72
2023-05-12T06:53:56.846Z,101566.91
2023-05-12T06:54:58.213Z,101567.75
2023-05-12T06:55:59.699Z,101569.94
2023-05-12T06:57:01.090Z,101569.75
2023-05-12T06:58:02.981Z,101564.25
2023-05-12T06:59:04.671Z,101562.22
2023-05-12T07:00:07.523Z,101568.72
2023-05-12T07:01:09.019Z,101562.34
2023-05-12T07:02:10.469Z,101566.94
2023-05-12T07:03:11.946Z,101555.69
2023-05-12T07:04:13.498Z,101571.16
2023-05-12T07:05:14.997Z,101566.34
2023-05-12T07:06:16.498Z,101568.09
2023-05-12T07:07:17.915Z,101566.06
2023-05-12T07:08:19.353Z,101573.25
2023-05-12T07:09:20.825Z,101572.22
2023-05-12T07:10:22.314Z,101568.66
2023-05-12T07:11:23.733Z,101575.13
2023-05-12T07:12:25.255Z,101571.91
2023-05-12T07:13:26.819Z,101570.72
2023-05-12T07:14:28.275Z,101573.44
2023-05-12T07:15:31.974Z,101566.25
2023-05-12T07:16:34.356Z,101573.22
2023-05-12T07:17:36.083Z,101565.34
2023-05-12T07:18:37.835Z,101575.84
2023-05-12T07:19:40.153Z,101574.94
2023-05-12T07:20:41.644Z,101567.81
2023-05-12T07:21:43.631Z,101565.88
2023-05-12T07:22:45.175Z,101567.28
2023-05-12T07:23:46.620Z,101574.16
2023-05-12T07:24:48.051Z,101562.09
2023-05-12T07:25:49.437Z,101555.91
2023-05-12T07:26:50.926Z,101571.81
2023-05-12T07:27:52.410Z,101558.75
2023-05-12T07:28:53.839Z,101556.66
2023-05-12T07:29:55.297Z,101553.13
2023-05-12T07:30:56.698Z,101541.19
2023-05-12T07:31:58.633Z,101559.41
2023-05-12T07:33:01.302Z,101553.00
2023-05-12T07:34:02.802Z,101567.97
2023-05-12T07:35:04.696Z,101552.72
2023-05-12T07:36:06.444Z,101560.09
2023-05-12T07:37:07.890Z,101560.44
2023-05-12T07:38:09.698Z,101565.06
2023-05-12T07:39:11.112Z,101558.69
2023-05-12T07:40:12.700Z,101564.28
2023-05-12T07:41:14.137Z,101557.06
2023-05-12T07:42:15.688Z,101561.56
2023-05-12T07:43:17.524Z,101560.88
2023-05-12T07:44:18.811Z,101559.66
2023-05-12T07:45:23.110Z,101556.94
2023-05-12T07:46:24.592Z,101558.41
2023-05-12T07:47:26.230Z,101560.88
2023-05-12T07:48:27.761Z,101554.44
2023-05-12T07:49:29.196Z,101555.22
2023-05-12T07:50:30.950Z,101557.81
2023-05-12T07:51:32.361Z,101556.66
2023-05-12T07:52:34.011Z,101557.63
2023-05-12T07:53:35.642Z,101558.19
2023-05-12T07:54:37.522Z,101555.56
2023-05-12T07:55:38.849Z,101556.28
2023-05-12T07:56:40.301Z,101560.41
2023-05-12T07:57:41.842Z,101555.00
2023-05-12T07:58:44.120Z,101554.84
2023-05-12T07:59:46.514Z,101561.25
2023-05-12T08:00:47.923Z,101564.00
2023-05-12T08:01:49.497Z,101556.72
2023-05-12T08:02:51.380Z,101563.63
2023-05-12T08:03:53.134Z,101559.66
2023-05-12T08:04:54.568Z,101543.09
2023-05-12T08:05:56.049Z,101557.72
2023-05-12T08:06:57.458Z,101553.34
2023-05-12T08:07:58.889Z,101554.00
2023-05-12T08:09:00.745Z,101556.25
2023-05-12T08:10:02.669Z,101556.25
2023-05-12T08:11:04.162Z,101556.13
2023-05-12T08:12:05.999Z,101559.03
2023-05-12T08:13:07.456Z,101550.84
2023-05-12T08:14:08.918Z,101551.75
2023-05-12T08:15:10.532Z,101548.03
2023-05-12T08:16:11.918Z,101548.44
2023-05-12T08:17:13.646Z,101557.81
2023-05-12T08:18:15.093Z,101552.59
2023-05-12T08:19:16.607Z,101542.91
2023-05-12T08:20:18.093Z,101542.50
2023-05-12T08:21:22.390Z,101548.03
2023-05-12T08:22:23.850Z,101558.47
2023-05-12T08:23:25.348Z,101551.31
2023-05-12T08:24:27.229Z,101554.22
2023-05-12T08:25:30.329Z,101553.31
2023-05-12T08:26:34.586Z,101545.06
2023-05-12T08:27:36.001Z,101541.72
2023-05-12T08:28:40.458Z,101546.44
2023-05-12T08:29:41.869Z,101524.34
2023-05-12T08:30:45.055Z,101547.34
2023-05-12T08:31:46.570Z,101549.66
2023-05-12T08:32:48.109Z,101540.78
2023-05-12T08:33:59.452Z,101549.03
2023-05-12T08:35:10.351Z,101545.63
2023-05-12T08:36:12.007Z,101543.97
2023-05-12T08:37:13.497Z,101545.63
2023-05-12T08:38:15.036Z,101556.00
2023-05-12T08:39:16.565Z,101542.06
2023-05-12T08:40:23.135Z,101549.56
2023-05-12T08:41:59.782Z,101543.13
2023-05-12T08:43:13.391Z,101547.56
2023-05-12T08:44:15.844Z,101547.75
2023-05-12T08:45:18.105Z,101551.41
2023-05-12T08:46:20.229Z,101553.38
2023-05-12T08:47:25.366Z,101544.25
2023-05-12T08:48:29.191Z,101550.25
2023-05-12T08:49:32.729Z,101549.50
2023-05-12T08:50:36.602Z,101547.44
2023-05-12T08:51:40.444Z,101540.72
2023-05-12T08:52:42.048Z,101548.59
2023-05-12T08:53:43.457Z,101545.50
2023-05-12T08:54:54.939Z,101539.13
2023-05-12T08:57:23.165Z,101536.91
2023-05-12T08:58:30.555Z,101540.13
2023-05-12T08:59:43.568Z,101546.47
2023-05-12T09:00:45.515Z,101551.19
2023-05-12T09:01:48.452Z,101545.84
2023-05-12T09:02:54.567Z,101537.72
2023-05-12T09:03:56.523Z,101545.16
2023-05-12T09:04:58.106Z,101534.53
2023-05-12T09:06:00.354Z,101538.41
2023-05-12T09:07:03.259Z,101532.13
2023-05-12T09:08:05.569Z,101541.84
2023-05-12T09:09:07.832Z,101538.22
2023-05-12T09:10:29.954Z,101541.84
2023-05-12T09:11:34.818Z,101540.78
2023-05-12T09:12:37.974Z,101535.09
2023-05-12T09:13:49.680Z,101527.44
2023-05-12T09:15:05.064Z,101534.28
2023-05-12T09:16:11.918Z,101536.16
2023-05-12T09:17:14.086Z,101538.78
2023-05-12T09:18:15.546Z,101541.84
2023-05-12T09:19:21.284Z,101533.56
2023-05-12T09:20:31.448Z,101549.97
2023-05-12T09:21:34.150Z,101538.38
2023-05-12T09:22:35.893Z,101542.25
2023-05-12T09:23:37.301Z,101534.03
2023-05-12T09:24:40.879Z,101546.84
2023-05-12T09:25:42.525Z,101531.19
2023-05-12T09:26:55.780Z,101540.03
2023-05-12T09:27:57.376Z,101533.06
2023-05-12T09:29:08.873Z,101536.03
2023-05-12T09:30:11.017Z,101535.97
2023-05-12T09:31:19.148Z,101541.81
2023-05-12T09:32:35.188Z,101534.34
2023-05-12T09:33:36.819Z,101546.72
2023-05-12T09:34:41.233Z,101530.75
2023-05-12T09:35:44.698Z,101534.63
2023-05-12T09:36:56.278Z,101532.84
2023-05-12T09:38:05.037Z,101532.69
2023-05-12T09:39:09.072Z,101534.16
2023-05-12T09:40:11.556Z,101534.34
2023-05-12T09:41:13.027Z,101534.16
2023-05-12T09:42:15.740Z,101525.94
2023-05-12T09:43:17.467Z,101528.94
2023-05-12T09:44:19.054Z,101523.31
2023-05-12T09:45:20.741Z,101528.09
2023-05-12T09:46:22.738Z,101526.97
2023-05-12T09:47:28.238Z,101536.66
2023-05-12T09:48:30.027Z,101535.13
2023-05-12T09:49:31.475Z,101526.22
2023-05-12T09:50:44.350Z,101527.97
2023-05-12T09:51:53.806Z,101533.97
2023-05-12T09:52:55.195Z,101533.91
2023-05-12T09:53:57.581Z,101525.81
2023-05-12T09:55:25.901Z,101526.41
2023-05-12T09:56:29.606Z,101513.50
2023-05-12T09:57:31.884Z,101524.75
2023-05-12T09:58:33.963Z,101525.97
2023-05-12T09:59:38.416Z,101524.81
2023-05-12T10:01:48.740Z,101535.50
2023-05-12T10:02:50.665Z,101535.69
2023-05-12T10:03:57.336Z,101532.19
2023-05-12T10:05:06.075Z,101521.00
2023-05-12T10:06:12.798Z,101528.38
2023-05-12T10:07:16.473Z,101525.91
2023-05-12T10:08:24.124Z,101531.47
2023-05-12T10:09:36.049Z,101525.50
2023-05-12T10:10:37.699Z,101519.03
2023-05-12T10:11:40.541Z,101520.84
2023-05-12T10:12:42.184Z,101527.94
2023-05-12T10:13:43.776Z,101522.88
2023-05-12T10:14:46.273Z,101522.50
2023-05-12T10:15:48.582Z,101515.88
2023-05-12T10:16:51.117Z,101520.88
2023-05-12T10:17:55.120Z,101512.66
2023-05-12T10:18:56.881Z,101516.19
2023-05-12T10:19:58.919Z,101511.19
2023-05-12T10:21:01.413Z,101511.94
2023-05-12T10:22:04.063Z,101513.06
2023-05-12T10:23:07.212Z,101505.91
2023-05-12T10:24:08.931Z,101511.19
2023-05-12T10:25:10.529Z,101521.56
2023-05-12T10:26:13.621Z,101508.19
2023-05-12T10:27:17.092Z,101501.91
2023-05-12T10:28:19.993Z,101507.78
2023-05-12T10:29:22.183Z,101506.25
2023-05-12T10:30:24.014Z,101501.63
2023-05-12T10:31:25.912Z,101505.84
2023-05-12T10:32:28.151Z,101491.47
2023-05-12T10:33:29.606Z,101508.22
2023-05-12T10:34:34.663Z,101500.31
2023-05-12T10:35:37.264Z,101505.00
2023-05-12T10:36:50.124Z,101499.44
2023-05-12T10:37:51.531Z,101492.03
2023-05-12T10:38:54.716Z,101496.28
2023-05-12T10:39:58.892Z,101498.31
2023-05-12T10:41:04.077Z,101496.59
2023-05-12T10:42:09.547Z,101493.63
2023-05-12T10:43:22.835Z,101499.47
2023-05-12T10:44:28.286Z,101496.31
2023-05-12T10:45:35.879Z,101502.59
2023-05-12T10:46:37.501Z,101501.41
2023-05-12T10:47:39.176Z,101500.63
2023-05-12T10:48:51.722Z,101501.97
2023-05-12T10:49:57.490Z,101500.97
2023-05-12T10:51:07.591Z,101495.25
2023-05-12T10:52:12.229Z,101479.81
2023-05-12T10:53:14.068Z,101493.47
2023-05-12T10:54:24.072Z,101498.53
2023-05-12T10:55:36.526Z,101494.66
2023-05-12T10:56:41.074Z,101495.97
2023-05-12T10:57:51.016Z,101495.22
2023-05-12T10:59:13.915Z,101491.59
2023-05-12T11:00:16.941Z,101490.88
2023-05-12T11:01:25.173Z,101495.09
2023-05-12T11:02:34.750Z,101492.78
2023-05-12T11:03:38.631Z,101485.53
2023-05-12T11:04:51.123Z,101484.41
2023-05-12T11:06:04.937Z,101488.97
2023-05-12T11:07:11.805Z,101490.63
2023-05-12T11:08:14.349Z,101491.38
2023-05-12T11:09:17.656Z,101489.00
2023-05-12T11:10:20.066Z,101488.00
2023-05-12T11:11:22.581Z,101490.84
2023-05-12T11:12:26.403Z,101488.81
2023-05-12T11:13:29.118Z,101483.59
2023-05-12T11:14:31.217Z,101485.47
2023-05-12T11:15:32.666Z,101485.28
2023-05-12T11:16:34.131Z,101478.38
2023-05-12T11:17:40.699Z,101475.59
2023-05-12T11:18:42.181Z,101476.56
2023-05-12T11:19:49.538Z,101480.97
2023-05-12T11:20:51.363Z,101472.09
2023-05-12T11:21:52.772Z,101475.78
2023-05-12T11:22:54.917Z,101482.84
2023-05-12T11:23:57.496Z,101474.75
2023-05-12T11:25:08.531Z,101466.78
2023-05-12T11:26:17.342Z,101471.78
2023-05-12T11:27:20.352Z,101473.47
2023-05-12T11:28:21.909Z,101469.88
2023-05-12T11:29:23.323Z,101472.38
2023-05-12T11:30:24.794Z,101481.63
2023-05-12T11:31:26.766Z,101482.91
2023-05-12T11:32:29.602Z,101480.81
2023-05-12T11:33:31.342Z,101483.69
2023-05-12T11:34:32.796Z,101488.50
2023-05-12T11:35:34.388Z,101488.16
2023-05-12T11:36:40.592Z,101477.00
2023-05-12T11:37:43.604Z,101478.09
2023-05-12T11:38:51.561Z,101473.22
2023-05-12T11:39:53.107Z,101470.22
2023-05-12T11:40:54.743Z,101477.06
2023-05-12T11:42:12.224Z,101493.59
2023-05-12T11:43:20.434Z,101478.16
2023-05-12T11:44:24.696Z,101489.41
2023-05-12T11:45:28.790Z,101490.06
2023-05-12T11:46:30.819Z,101487.59
2023-05-12T11:47:32.311Z,101486.59
2023-05-12T11:48:34.929Z,101491.44
2023-05-12T11:49:46.700Z,101486.03
2023-05-12T11:50:51.181Z,101492.41
2023-05-12T11:51:56.532Z,101482.88
2023-05-12T11:52:58.012Z,101492.06
2023-05-12T11:53:59.663Z,101485.97
2023-05-12T11:55:01.202Z,101484.47
2023-05-12T11:56:02.604Z,101490.25
2023-05-12T11:57:04.547Z,101498.88
2023-05-12T11:58:06.007Z,101484.44
2023-05-12T11:59:07.472Z,101493.81
2023-05-12T12:00:09.842Z,101495.44